createdAt,value
2023-04-22T00:04:51.311Z,15.38
2023-04-22T00:09:58.212Z,17.02
2023-04-22T00:15:06.963Z,16.55
2023-04-22T00:20:15.555Z,14.32
2023-04-22T00:25:21.856Z,12.75
2023-04-22T00:30:30.178Z,12.80
2023-04-22T00:35:37.071Z,12.27
2023-04-22T00:40:43.492Z,12.48
2023-04-22T00:45:51.796Z,11.07
2023-04-22T00:50:57.984Z,12.77
2023-04-22T00:56:04.449Z,10.98
2023-04-22T01:01:13.098Z,9.93
2023-04-22T01:06:21.898Z,10.88
2023-04-22T01:11:28.201Z,10.55
2023-04-22T01:16:39.320Z,9.73
2023-04-22T01:21:46.663Z,9.32
2023-04-22T01:26:54.499Z,8.90
2023-04-22T01:32:01.295Z,8.90
2023-04-22T01:37:11.267Z,8.67
2023-04-22T01:42:20.742Z,8.35
2023-04-22T01:47:27.885Z,8.97
2023-04-22T01:52:34.286Z,9.27
2023-04-22T01:57:42.008Z,9.82
2023-04-22T02:02:48.500Z,8.95
2023-04-22T02:07:55.595Z,8.88
2023-04-22T02:13:03.706Z,8.63
2023-04-22T02:18:10.480Z,7.68
2023-04-22T02:23:16.851Z,7.68
2023-04-22T02:28:24.599Z,7.45
2023-04-22T02:33:30.899Z,8.23
2023-04-22T02:38:37.430Z,8.38
2023-04-22T02:43:47.530Z,7.90
2023-04-22T02:48:54.381Z,7.95
2023-04-22T02:54:01.253Z,7.70
2023-04-22T02:59:09.441Z,8.02
2023-04-22T03:04:16.543Z,6.47
2023-04-22T03:09:26.159Z,8.23
2023-04-22T03:14:33.917Z,7.35
2023-04-22T03:19:40.487Z,9.10
2023-04-22T03:24:47.933Z,7.55
2023-04-22T03:29:56.368Z,8.82
2023-04-22T03:35:03.924Z,7.07
2023-04-22T03:40:13.701Z,7.57
2023-04-22T03:45:22.642Z,7.30
2023-04-22T03:50:51.937Z,6.93
2023-04-22T03:55:58.692Z,6.95
2023-04-22T04:01:07.609Z,6.43
2023-04-22T04:11:21.584Z,7.18
2023-04-22T04:16:31.121Z,5.90
2023-04-22T04:21:44.531Z,6.93
2023-04-22T04:26:52.285Z,6.32
2023-04-22T04:32:05.226Z,7.13
2023-04-22T04:37:12.013Z,7.32
2023-04-22T04:42:33.843Z,5.57
2023-04-22T04:47:46.563Z,6.22
2023-04-22T04:52:59.685Z,4.75
2023-04-22T04:58:12.847Z,6.53
2023-04-22T05:03:21.092Z,6.13
2023-04-22T05:08:28.585Z,6.07
2023-04-22T05:13:41.930Z,4.88
2023-04-22T05:18:54.942Z,7.75
2023-04-22T05:24:01.629Z,4.82
2023-04-22T05:29:09.020Z,3.88
2023-04-22T05:34:17.426Z,3.88
2023-04-22T05:39:24.149Z,4.13
2023-04-22T05:44:31.109Z,4.15
2023-04-22T05:49:39.722Z,4.10
2023-04-22T05:54:54.443Z,3.40
2023-04-22T06:00:02.063Z,3.40
2023-04-22T06:05:13.657Z,4.13
2023-04-22T06:10:20.330Z,3.38
2023-04-22T06:15:28.771Z,3.42
2023-04-22T06:20:38.536Z,3.50
2023-04-22T06:25:44.924Z,3.65
2023-04-22T06:30:51.229Z,4.07
2023-04-22T06:35:59.605Z,3.70
2023-04-22T06:41:09.184Z,4.13
2023-04-22T06:46:19.102Z,3.70
2023-04-22T06:51:33.584Z,3.58
2023-04-22T07:01:47.492Z,2.92
2023-04-22T07:06:56.469Z,2.92
2023-04-22T07:12:03.213Z,2.60
2023-04-22T07:17:10.332Z,3.33
2023-04-22T07:22:18.181Z,3.17
2023-04-22T07:27:24.796Z,3.33
2023-04-22T07:32:33.745Z,3.13
2023-04-22T07:37:41.782Z,3.30
2023-04-22T07:42:48.625Z,3.50
2023-04-22T07:47:55.448Z,3.53
2023-04-22T07:53:03.323Z,3.60
2023-04-22T07:58:09.740Z,2.97
2023-04-22T08:03:16.622Z,3.30
2023-04-22T08:08:25.047Z,3.42
2023-04-22T08:13:31.547Z,3.10
2023-04-22T08:18:38.281Z,2.78
2023-04-22T08:23:46.590Z,3.28
2023-04-22T08:28:52.994Z,2.90
2023-04-22T08:34:00.004Z,2.80
2023-04-22T08:39:08.005Z,2.60
2023-04-22T08:44:15.866Z,2.80
2023-04-22T08:49:23.002Z,2.30
2023-04-22T08:54:30.919Z,2.50
2023-04-22T08:59:39.287Z,2.47
2023-04-22T09:04:48.035Z,2.38
2023-04-22T09:09:57.030Z,2.25
2023-04-22T09:20:12.628Z,1.73
2023-04-22T09:25:22.628Z,2.27
2023-04-22T09:30:31.405Z,2.22
2023-04-22T09:35:40.193Z,2.17
2023-04-22T09:40:49.132Z,1.60
2023-04-22T09:45:55.911Z,2.10
2023-04-22T09:51:02.636Z,1.58
2023-04-22T09:56:10.753Z,1.92
2023-04-22T10:01:17.238Z,1.77
2023-04-22T10:06:24.058Z,2.33
2023-04-22T10:11:32.514Z,2.05
2023-04-22T10:16:41.405Z,2.20
2023-04-22T10:27:00.096Z,1.52
2023-04-22T10:32:25.211Z,1.77
2023-04-22T10:37:33.685Z,1.52
2023-04-22T10:42:44.886Z,2.00
2023-04-22T10:47:51.506Z,1.42
2023-04-22T10:53:00.398Z,2.40
2023-04-22T10:58:22.304Z,1.50
2023-04-22T11:03:31.423Z,1.73
2023-04-22T11:08:38.173Z,1.55
2023-04-22T11:13:47.862Z,1.52
2023-04-22T11:18:55.037Z,1.60
2023-04-22T11:24:06.497Z,1.83
2023-04-22T11:29:14.262Z,1.40
2023-04-22T11:34:21.016Z,1.63
2023-04-22T11:39:44.339Z,1.42
2023-04-22T11:45:04.249Z,1.20
2023-04-22T11:50:14.369Z,1.35
2023-04-22T12:00:34.739Z,1.42
2023-04-22T12:05:43.301Z,1.60
2023-04-22T12:10:56.744Z,1.33
2023-04-22T12:16:08.875Z,2.08
2023-04-22T12:21:17.102Z,1.50
2023-04-22T12:26:27.748Z,1.30
2023-04-22T12:31:36.231Z,1.40
2023-04-22T12:36:42.840Z,1.10
2023-04-22T12:41:51.338Z,1.30
2023-04-22T12:46:59.300Z,1.25
2023-04-22T12:52:05.716Z,1.17
2023-04-22T12:57:12.311Z,1.10
2023-04-22T13:02:20.323Z,1.20
2023-04-22T13:07:26.988Z,1.10
2023-04-22T13:12:33.544Z,1.45
2023-04-22T13:17:41.964Z,1.30
2023-04-22T13:22:48.836Z,1.05
2023-04-22T13:27:55.421Z,1.10
2023-04-22T13:33:03.588Z,1.08
2023-04-22T13:38:10.269Z,1.10
2023-04-22T13:43:16.902Z,1.00
2023-04-22T13:48:24.857Z,1.40
2023-04-22T13:53:33.467Z,1.20
2023-04-22T13:58:42.799Z,1.40
2023-04-22T14:03:51.345Z,1.40
2023-04-22T14:08:58.071Z,1.15
2023-04-22T14:14:04.669Z,1.60
2023-04-22T14:19:12.934Z,1.20
2023-04-22T14:24:20.100Z,1.60
2023-04-22T14:29:26.926Z,1.30
2023-04-22T14:34:34.932Z,1.27
2023-04-22T14:39:41.812Z,1.27
2023-04-22T14:44:48.576Z,1.50
2023-04-22T14:49:56.796Z,1.27
2023-04-22T14:55:12.179Z,1.38
2023-04-22T15:00:27.627Z,1.30
2023-04-22T15:05:37.132Z,1.15
2023-04-22T15:10:43.772Z,1.00
2023-04-22T15:15:50.395Z,1.20
2023-04-22T15:20:58.678Z,0.82
2023-04-22T15:26:05.302Z,1.98
2023-04-22T15:31:11.972Z,0.98
2023-04-22T15:36:22.143Z,0.93
2023-04-22T15:41:29.277Z,0.98
2023-04-22T15:46:35.914Z,21.20
2023-04-22T15:51:43.935Z,14.48
2023-04-22T15:56:50.745Z,1.90
2023-04-22T16:01:57.810Z,1.48
2023-04-22T16:07:06.507Z,1.15
2023-04-22T16:12:13.948Z,2.88
2023-04-22T16:17:21.146Z,3.67
2023-04-22T16:22:29.384Z,2.25
2023-04-22T16:27:35.949Z,1.83
2023-04-22T16:32:42.740Z,1.73
2023-04-22T16:37:51.402Z,1.10
2023-04-22T16:43:03.250Z,3.63
2023-04-22T16:48:09.681Z,4.32
2023-04-22T16:53:17.663Z,1.52
2023-04-22T16:58:24.365Z,1.30
2023-04-22T17:03:31.155Z,1.48
2023-04-22T17:08:39.512Z,1.48
2023-04-22T17:13:46.153Z,1.47
2023-04-22T17:18:52.707Z,2.13
2023-04-22T17:24:02.512Z,27.35
2023-04-22T17:29:08.998Z,33.55
2023-04-22T17:34:15.519Z,8.82
2023-04-22T17:39:23.491Z,3.40
2023-04-22T17:44:30.001Z,11.17
2023-04-22T17:49:36.498Z,5.07
2023-04-22T17:54:45.067Z,1.42
2023-04-22T17:59:51.441Z,7.05
2023-04-22T18:04:57.960Z,11.88
2023-04-22T18:10:06.743Z,11.85
2023-04-22T18:20:20.992Z,15.40
2023-04-22T18:25:30.147Z,19.40
2023-04-22T18:30:36.937Z,15.27
2023-04-22T18:35:44.586Z,14.68
2023-04-22T18:40:53.822Z,51.90
2023-04-22T18:46:00.779Z,36.13
2023-04-22T18:51:08.149Z,22.90
2023-04-22T18:56:16.253Z,21.33
2023-04-22T19:01:22.878Z,17.77
2023-04-22T19:06:30.477Z,15.13
2023-04-22T19:11:39.363Z,11.63
2023-04-22T19:16:47.377Z,6.00
2023-04-22T19:21:54.930Z,4.38
2023-04-22T19:27:07.215Z,5.50
2023-04-22T19:32:14.413Z,6.97
2023-04-22T19:37:24.144Z,9.65
2023-04-22T19:42:33.772Z,12.63
2023-04-22T19:47:41.831Z,12.15
2023-04-22T19:52:52.768Z,23.08
2023-04-22T19:58:01.827Z,15.75
2023-04-22T20:03:10.438Z,16.38
2023-04-22T20:08:20.092Z,16.30
2023-04-22T20:13:30.108Z,18.20
2023-04-22T20:18:38.287Z,15.85
2023-04-22T20:23:46.544Z,19.30
2023-04-22T20:28:55.145Z,19.50
2023-04-22T20:34:03.220Z,18.20
2023-04-22T20:39:14.534Z,16.52
2023-04-22T20:44:23.047Z,15.82
2023-04-22T20:49:30.534Z,14.23
2023-04-22T20:54:37.860Z,17.08
2023-04-22T20:59:46.197Z,19.65
2023-04-22T21:04:54.013Z,18.75
2023-04-22T21:10:01.171Z,20.52
2023-04-22T21:15:12.142Z,19.10
2023-04-22T21:20:19.852Z,17.67
2023-04-22T21:25:30.352Z,18.08
2023-04-22T21:30:39.490Z,20.23
2023-04-22T21:40:52.703Z,19.95
2023-04-22T21:46:01.331Z,20.30
2023-04-22T21:51:08.328Z,34.38
2023-04-22T21:56:17.584Z,26.27
2023-04-22T22:01:25.945Z,35.58
2023-04-22T22:06:33.683Z,33.17
2023-04-22T22:11:40.620Z,31.08
2023-04-22T22:16:50.151Z,23.30
2023-04-22T22:21:57.194Z,21.70
2023-04-22T22:27:05.508Z,26.63
2023-04-22T22:32:13.720Z,26.83
2023-04-22T22:37:20.762Z,25.30
2023-04-22T22:42:27.756Z,28.85
2023-04-22T22:47:36.202Z,26.48
2023-04-22T22:52:43.117Z,29.25
2023-04-22T22:57:49.495Z,27.80
2023-04-22T23:02:58.248Z,29.80
2023-04-22T23:08:05.393Z,30.45
2023-04-22T23:13:12.477Z,25.83
2023-04-22T23:18:21.235Z,19.10
2023-04-22T23:23:29.763Z,15.25
2023-04-22T23:28:37.460Z,19.33
2023-04-22T23:33:46.116Z,25.38
2023-04-22T23:38:52.494Z,31.98
2023-04-22T23:43:59.202Z,30.83
2023-04-22T23:49:07.622Z,28.58
2023-04-22T23:54:14.058Z,35.83
2023-04-22T23:59:21.508Z,37.20
